createdAt,value
2023-01-27T00:00:51.914Z,-0.50
2023-01-27T00:03:19.610Z,-0.49
2023-01-27T00:05:47.337Z,-0.49
2023-01-27T00:08:14.538Z,-0.48
2023-01-27T00:10:41.501Z,-0.48
2023-01-27T00:13:27.846Z,-0.49
2023-01-27T00:15:55.635Z,-0.48
2023-01-27T00:18:23.643Z,-0.48
2023-01-27T00:21:09.616Z,-0.48
2023-01-27T00:23:55.532Z,-0.48
2023-01-27T00:26:23.208Z,-0.49
2023-01-27T00:28:50.179Z,-0.48
2023-01-27T00:31:38.068Z,-0.48
2023-01-27T00:34:11.299Z,-0.49
2023-01-27T00:36:41.616Z,-0.48
2023-01-27T00:39:11.064Z,-0.49
2023-01-27T00:41:39.288Z,-0.49
2023-01-27T00:44:12.534Z,-0.49
2023-01-27T00:46:41.156Z,-0.48
2023-01-27T00:49:10.719Z,-0.49
2023-01-27T00:51:37.663Z,-0.49
2023-01-27T00:54:05.213Z,-0.48
2023-01-27T00:56:32.669Z,-0.49
2023-01-27T00:58:59.999Z,-0.49
2023-01-27T01:01:27.546Z,-0.50
2023-01-27T01:03:54.530Z,-0.48
2023-01-27T01:06:21.652Z,-0.48
2023-01-27T01:08:48.917Z,-0.47
2023-01-27T01:11:17.360Z,-0.48
2023-01-27T01:13:46.543Z,-0.47
2023-01-27T01:16:20.608Z,-0.47
2023-01-27T01:18:49.122Z,-0.45
2023-01-27T01:21:16.911Z,-0.46
2023-01-27T01:23:45.833Z,-0.46
2023-01-27T01:26:15.563Z,-0.45
2023-01-27T01:28:46.988Z,-0.45
2023-01-27T01:31:19.409Z,-0.45
2023-01-27T01:33:47.753Z,-0.45
2023-01-27T01:36:20.674Z,-0.46
2023-01-27T01:38:48.857Z,-0.45
2023-01-27T01:41:20.652Z,-0.46
2023-01-27T01:43:49.896Z,-0.45
2023-01-27T01:46:18.266Z,-0.44
2023-01-27T01:48:56.008Z,-0.45
2023-01-27T01:51:26.982Z,-0.44
2023-01-27T01:54:09.380Z,-0.44
2023-01-27T01:56:58.078Z,-0.43
2023-01-27T01:59:35.453Z,-0.45
2023-01-27T02:02:10.896Z,-0.45
2023-01-27T02:04:46.260Z,-0.44
2023-01-27T02:07:49.818Z,-0.44
2023-01-27T02:10:16.881Z,-0.44
2023-01-27T02:12:45.699Z,-0.43
2023-01-27T02:15:13.362Z,-0.42
2023-01-27T02:17:41.024Z,-0.43
2023-01-27T02:20:30.436Z,-0.43
2023-01-27T02:23:09.145Z,-0.42
2023-01-27T02:25:40.210Z,-0.43
2023-01-27T02:28:08.666Z,-0.42
2023-01-27T02:30:35.759Z,-0.41
2023-01-27T02:33:13.710Z,-0.42
2023-01-27T02:36:12.154Z,-0.42
2023-01-27T02:38:49.169Z,-0.41
2023-01-27T02:41:32.662Z,-0.41
2023-01-27T02:44:00.557Z,-0.42
2023-01-27T02:46:28.024Z,-0.41
2023-01-27T02:48:55.154Z,-0.41
2023-01-27T02:51:23.314Z,-0.42
2023-01-27T02:53:50.367Z,-0.42
2023-01-27T02:56:17.296Z,-0.41
2023-01-27T02:58:44.492Z,-0.42
2023-01-27T03:01:15.605Z,-0.40
2023-01-27T03:03:47.239Z,-0.40
2023-01-27T03:06:20.167Z,-0.40
2023-01-27T03:08:47.860Z,-0.40
2023-01-27T03:11:36.327Z,-0.39
2023-01-27T03:14:03.944Z,-0.40
2023-01-27T03:16:49.237Z,-0.40
2023-01-27T03:19:17.151Z,-0.40
2023-01-27T03:21:45.180Z,-0.40
2023-01-27T03:24:12.726Z,-0.40
2023-01-27T03:26:39.801Z,-0.39
2023-01-27T03:29:26.857Z,-0.38
2023-01-27T03:31:53.944Z,-0.39
2023-01-27T03:34:21.463Z,-0.38
2023-01-27T03:37:09.312Z,-0.38
2023-01-27T03:39:55.327Z,-0.38
2023-01-27T03:42:41.629Z,-0.38
2023-01-27T03:45:27.999Z,-0.38
2023-01-27T03:47:54.954Z,-0.38
2023-01-27T03:50:31.060Z,-0.38
2023-01-27T03:53:04.254Z,-0.37
2023-01-27T03:55:32.991Z,-0.38
2023-01-27T03:58:14.446Z,-0.37
2023-01-27T04:00:41.594Z,-0.36
2023-01-27T04:03:27.107Z,-0.37
2023-01-27T04:06:12.917Z,-0.36
2023-01-27T04:08:43.458Z,-0.37
2023-01-27T04:11:31.512Z,-0.37
2023-01-27T04:14:05.319Z,-0.37
2023-01-27T04:16:34.334Z,-0.37
2023-01-27T04:19:01.354Z,-0.37
2023-01-27T04:21:28.487Z,-0.37
2023-01-27T04:23:55.844Z,-0.37
2023-01-27T04:26:23.177Z,-0.37
2023-01-27T04:28:50.561Z,-0.37
2023-01-27T04:31:18.158Z,-0.36
2023-01-27T04:33:45.357Z,-0.35
2023-01-27T04:36:15.589Z,-0.36
2023-01-27T04:38:42.798Z,-0.35
2023-01-27T04:41:10.035Z,-0.34
2023-01-27T04:43:37.098Z,-0.34
2023-01-27T04:46:04.207Z,-0.33
2023-01-27T04:48:31.176Z,-0.33
2023-01-27T04:50:58.093Z,-0.33
2023-01-27T04:53:25.046Z,-0.34
2023-01-27T04:55:51.936Z,-0.33
2023-01-27T04:58:19.116Z,-0.33
2023-01-27T05:00:46.153Z,-0.33
2023-01-27T05:03:13.178Z,-0.30
2023-01-27T05:05:40.136Z,-0.31
2023-01-27T05:08:10.194Z,-0.31
2023-01-27T05:10:37.434Z,-0.30
2023-01-27T05:13:04.428Z,-0.30
2023-01-27T05:15:31.512Z,-0.29
2023-01-27T05:17:58.433Z,-0.29
2023-01-27T05:20:25.377Z,-0.28
2023-01-27T05:23:12.288Z,-0.28
2023-01-27T05:25:43.929Z,-0.29
2023-01-27T05:28:12.133Z,-0.29
2023-01-27T05:30:39.537Z,-0.29
2023-01-27T05:33:08.280Z,-0.28
2023-01-27T05:35:35.813Z,-0.28
2023-01-27T05:38:03.014Z,-0.28
2023-01-27T05:40:30.108Z,-0.28
2023-01-27T05:42:57.044Z,-0.29
2023-01-27T05:45:23.939Z,-0.27
2023-01-27T05:47:51.497Z,-0.28
2023-01-27T05:50:19.126Z,-0.26
2023-01-27T05:52:46.438Z,-0.27
2023-01-27T05:55:13.708Z,-0.26
2023-01-27T05:57:40.811Z,-0.27
2023-01-27T06:00:08.683Z,-0.26
2023-01-27T06:02:35.640Z,-0.28
2023-01-27T06:05:02.727Z,-0.26
2023-01-27T06:07:29.716Z,-0.26
2023-01-27T06:09:56.644Z,-0.26
2023-01-27T06:12:23.584Z,-0.25
2023-01-27T06:14:50.527Z,-0.25
2023-01-27T06:17:17.461Z,-0.24
2023-01-27T06:19:44.395Z,-0.25
2023-01-27T06:22:11.334Z,-0.25
2023-01-27T06:24:38.241Z,-0.24
2023-01-27T06:27:05.128Z,-0.25
2023-01-27T06:29:32.185Z,-0.25
2023-01-27T06:31:59.148Z,-0.24
2023-01-27T06:34:26.084Z,-0.25
2023-01-27T06:36:54.063Z,-0.25
2023-01-27T06:39:21.269Z,-0.25
2023-01-27T06:41:50.281Z,-0.25
2023-01-27T06:44:17.275Z,-0.26
2023-01-27T06:46:44.274Z,-0.26
2023-01-27T06:49:11.269Z,-0.27
2023-01-27T06:51:38.178Z,-0.26
2023-01-27T06:54:05.333Z,-0.28
2023-01-27T06:56:32.293Z,-0.26
2023-01-27T06:58:59.207Z,-0.26
2023-01-27T07:01:26.169Z,-0.26
2023-01-27T07:03:53.133Z,-0.26
2023-01-27T07:06:20.486Z,-0.26
2023-01-27T07:08:47.500Z,-0.25
2023-01-27T07:11:14.542Z,-0.24
2023-01-27T07:13:41.615Z,-0.23
2023-01-27T07:16:08.659Z,-0.23
2023-01-27T07:18:35.580Z,-0.22
2023-01-27T07:21:05.462Z,-0.21
2023-01-27T07:23:32.477Z,-0.23
2023-01-27T07:26:04.285Z,-0.22
2023-01-27T07:28:32.748Z,-0.22
2023-01-27T07:31:03.287Z,-0.22
2023-01-27T07:33:30.343Z,-0.22
2023-01-27T07:35:57.542Z,-0.23
2023-01-27T07:38:24.551Z,-0.23
2023-01-27T07:40:51.518Z,-0.24
2023-01-27T07:43:18.497Z,-0.23
2023-01-27T07:45:51.054Z,-0.23
2023-01-27T07:48:17.927Z,-0.23
2023-01-27T07:50:44.889Z,-0.23
2023-01-27T07:53:11.866Z,-0.22
2023-01-27T07:55:38.942Z,-0.21
2023-01-27T07:58:06.138Z,-0.20
2023-01-27T08:00:34.039Z,-0.19
2023-01-27T08:03:02.885Z,-0.18
2023-01-27T08:05:34.205Z,-0.17
2023-01-27T08:08:04.196Z,-0.16
2023-01-27T08:10:31.451Z,-0.14
2023-01-27T08:12:58.391Z,-0.13
2023-01-27T08:15:25.355Z,-0.13
2023-01-27T08:17:59.728Z,-0.11
2023-01-27T08:20:27.926Z,-0.11
2023-01-27T08:22:55.420Z,-0.11
2023-01-27T08:25:22.947Z,-0.09
2023-01-27T08:27:52.530Z,-0.09
2023-01-27T08:30:20.049Z,-0.09
2023-01-27T08:32:47.754Z,-0.08
2023-01-27T08:35:14.956Z,-0.06
2023-01-27T08:37:41.942Z,-0.04
2023-01-27T08:40:10.022Z,-0.03
2023-01-27T08:42:36.965Z,-0.03
2023-01-27T08:45:04.316Z,-0.01
2023-01-27T08:47:31.241Z,0.02
2023-01-27T08:49:58.242Z,0.03
2023-01-27T08:52:27.563Z,0.04
2023-01-27T08:54:54.476Z,0.08
2023-01-27T08:57:21.386Z,0.09
2023-01-27T08:59:48.308Z,0.11
2023-01-27T09:02:15.198Z,0.12
2023-01-27T09:04:44.245Z,0.13
2023-01-27T09:07:11.564Z,0.16
2023-01-27T09:09:38.452Z,0.16
2023-01-27T09:12:05.467Z,0.20
2023-01-27T09:14:32.552Z,0.21
2023-01-27T09:16:59.532Z,0.25
2023-01-27T09:19:26.434Z,0.28
2023-01-27T09:21:53.346Z,0.31
2023-01-27T09:24:20.499Z,0.33
2023-01-27T09:26:47.600Z,0.36
2023-01-27T09:29:14.631Z,0.39
2023-01-27T09:31:41.720Z,0.40
2023-01-27T09:34:08.707Z,0.43
2023-01-27T09:36:42.977Z,0.43
2023-01-27T09:39:11.667Z,0.45
2023-01-27T09:42:18.286Z,0.48
2023-01-27T09:45:40.465Z,0.50
2023-01-27T09:48:33.657Z,0.50
2023-01-27T09:51:22.911Z,0.51
2023-01-27T09:54:23.756Z,0.52
2023-01-27T09:57:24.667Z,0.56
2023-01-27T10:00:21.794Z,0.59
2023-01-27T10:03:12.430Z,0.60
2023-01-27T10:06:20.004Z,0.61
2023-01-27T10:09:20.755Z,0.64
2023-01-27T10:12:16.696Z,0.66
2023-01-27T10:15:08.483Z,0.68
2023-01-27T10:18:10.734Z,0.70
2023-01-27T10:21:08.352Z,0.74
2023-01-27T10:23:53.353Z,0.77
2023-01-27T10:26:31.837Z,0.80
2023-01-27T10:29:09.668Z,0.79
2023-01-27T10:31:45.785Z,0.83
2023-01-27T10:34:34.322Z,0.86
2023-01-27T10:37:53.940Z,0.90
2023-01-27T10:40:35.995Z,0.93
2023-01-27T10:43:28.249Z,0.98
2023-01-27T10:46:34.193Z,1.02
2023-01-27T10:49:24.143Z,1.06
2023-01-27T10:52:13.606Z,1.13
2023-01-27T10:55:28.283Z,1.17
2023-01-27T10:58:16.701Z,1.20
2023-01-27T11:01:19.390Z,1.20
2023-01-27T11:03:57.409Z,1.27
2023-01-27T11:06:30.714Z,1.30
2023-01-27T11:09:24.007Z,1.35
2023-01-27T11:11:52.748Z,1.39
2023-01-27T11:14:30.121Z,1.44
2023-01-27T11:17:14.185Z,1.45
2023-01-27T11:19:54.432Z,1.48
2023-01-27T11:22:28.643Z,1.50
2023-01-27T11:25:13.905Z,1.53
2023-01-27T11:28:24.225Z,1.57
2023-01-27T11:31:40.434Z,1.60
2023-01-27T11:34:16.184Z,1.62
2023-01-27T11:36:43.276Z,1.63
2023-01-27T11:39:11.868Z,1.66
2023-01-27T11:41:56.040Z,1.68
2023-01-27T11:44:34.272Z,1.69
2023-01-27T11:47:06.172Z,1.71
2023-01-27T11:49:42.868Z,1.71
2023-01-27T11:52:17.423Z,1.73
2023-01-27T11:55:19.951Z,1.77
2023-01-27T11:58:11.499Z,1.79
2023-01-27T12:00:45.217Z,1.81
2023-01-27T12:03:41.700Z,1.82
2023-01-27T12:06:33.714Z,1.85
2023-01-27T12:09:00.730Z,1.85
2023-01-27T12:11:32.397Z,1.88
2023-01-27T12:14:01.839Z,1.88
2023-01-27T12:16:48.934Z,1.86
2023-01-27T12:19:32.021Z,1.88
2023-01-27T12:22:06.257Z,1.89
2023-01-27T12:24:41.940Z,1.91
2023-01-27T12:27:24.407Z,1.92
2023-01-27T12:30:02.343Z,1.93
2023-01-27T12:32:46.859Z,1.94
2023-01-27T12:35:28.949Z,1.95
2023-01-27T12:38:02.716Z,1.95
2023-01-27T12:40:30.077Z,1.94
2023-01-27T12:43:09.963Z,1.95
2023-01-27T12:45:39.540Z,1.95
2023-01-27T12:48:09.082Z,1.96
2023-01-27T12:50:40.054Z,1.96
2023-01-27T12:53:22.074Z,1.97
2023-01-27T12:56:23.597Z,1.98
2023-01-27T12:59:00.351Z,2.00
2023-01-27T13:01:37.684Z,2.00
2023-01-27T13:04:10.385Z,2.00
2023-01-27T13:06:48.405Z,2.02
2023-01-27T13:09:31.904Z,2.02
2023-01-27T13:12:21.785Z,2.04
2023-01-27T13:14:56.628Z,2.05
2023-01-27T13:17:53.072Z,2.06
2023-01-27T13:20:47.601Z,2.08
2023-01-27T13:23:29.734Z,2.08
2023-01-27T13:26:10.320Z,2.10
2023-01-27T13:29:01.737Z,2.11
2023-01-27T13:31:51.896Z,2.12
2023-01-27T13:34:38.902Z,2.12
2023-01-27T13:37:31.499Z,2.14
2023-01-27T13:40:29.552Z,2.16
2023-01-27T13:43:33.667Z,2.13
2023-01-27T13:46:33.341Z,2.17
2023-01-27T13:49:16.349Z,2.17
2023-01-27T13:51:43.360Z,2.20
2023-01-27T13:54:15.462Z,2.22
2023-01-27T13:57:48.273Z,2.29
2023-01-27T14:00:51.489Z,2.33
2023-01-27T14:03:55.759Z,2.35
2023-01-27T14:07:02.021Z,2.40
2023-01-27T14:09:53.881Z,2.41
2023-01-27T14:12:52.197Z,2.42
2023-01-27T14:16:02.400Z,2.41
2023-01-27T14:18:51.590Z,2.39
2023-01-27T14:21:47.065Z,2.40
2023-01-27T14:24:40.529Z,2.40
2023-01-27T14:27:43.740Z,2.41
2023-01-27T14:30:22.554Z,2.40
2023-01-27T14:33:05.920Z,2.39
2023-01-27T14:35:50.870Z,2.38
2023-01-27T14:38:37.704Z,2.39
2023-01-27T14:41:10.682Z,2.39
2023-01-27T14:44:20.578Z,2.40
2023-01-27T14:47:30.401Z,2.42
2023-01-27T14:50:17.033Z,2.43
2023-01-27T14:53:25.516Z,2.46
2023-01-27T14:56:07.317Z,2.50
2023-01-27T14:59:11.175Z,2.54
2023-01-27T15:01:48.132Z,2.56
2023-01-27T15:04:33.334Z,2.59
2023-01-27T15:07:19.304Z,2.61
2023-01-27T15:10:24.375Z,2.63
2023-01-27T15:13:06.715Z,2.64
2023-01-27T15:16:11.739Z,2.64
2023-01-27T15:18:50.776Z,2.63
2023-01-27T15:21:44.762Z,2.62
2023-01-27T15:24:54.207Z,2.60
2023-01-27T15:27:22.425Z,2.58
2023-01-27T15:29:49.430Z,2.56
2023-01-27T15:32:16.313Z,2.55
2023-01-27T15:34:52.630Z,2.53
2023-01-27T15:37:30.112Z,2.53
2023-01-27T15:40:05.877Z,2.50
2023-01-27T15:42:55.259Z,2.48
2023-01-27T15:45:34.822Z,2.46
2023-01-27T15:48:15.677Z,2.45
2023-01-27T15:51:01.042Z,2.43
2023-01-27T15:53:45.002Z,2.41
2023-01-27T15:56:12.162Z,2.40
2023-01-27T15:58:43.301Z,2.38
2023-01-27T16:01:22.731Z,2.37
2023-01-27T16:03:52.966Z,2.33
2023-01-27T16:06:26.246Z,2.32
2023-01-27T16:09:01.375Z,2.31
2023-01-27T16:11:28.142Z,2.31
2023-01-27T16:14:16.783Z,2.28
2023-01-27T16:17:24.891Z,2.25
2023-01-27T16:19:57.754Z,2.24
2023-01-27T16:22:26.633Z,2.23
2023-01-27T16:25:26.984Z,2.22
2023-01-27T16:28:22.332Z,2.21
2023-01-27T16:31:10.933Z,2.20
2023-01-27T16:33:42.245Z,2.18
2023-01-27T16:36:29.694Z,2.17
2023-01-27T16:39:09.418Z,2.16
2023-01-27T16:41:39.204Z,2.16
2023-01-27T16:44:28.427Z,2.15
2023-01-27T16:47:05.040Z,2.14
2023-01-27T16:49:43.300Z,2.14
2023-01-27T16:52:41.888Z,2.13
2023-01-27T16:55:24.077Z,2.12
2023-01-27T16:57:56.954Z,2.11
2023-01-27T17:00:38.777Z,2.10
2023-01-27T17:03:17.939Z,2.09
2023-01-27T17:05:56.014Z,2.09
2023-01-27T17:08:35.655Z,2.09
2023-01-27T17:11:33.763Z,2.09
2023-01-27T17:14:04.305Z,2.09
2023-01-27T17:16:45.696Z,2.07
2023-01-27T17:19:24.126Z,2.08
2023-01-27T17:22:17.805Z,2.07
2023-01-27T17:24:52.803Z,2.06
2023-01-27T17:27:28.827Z,2.06
2023-01-27T17:30:08.269Z,2.07
2023-01-27T17:32:37.855Z,2.05
2023-01-27T17:35:26.697Z,2.06
2023-01-27T17:38:21.957Z,2.06
2023-01-27T17:40:51.921Z,2.05
2023-01-27T17:43:39.401Z,2.04
2023-01-27T17:46:23.386Z,2.05
2023-01-27T17:49:12.974Z,2.05
2023-01-27T17:52:00.166Z,2.04
2023-01-27T17:54:35.166Z,2.04
2023-01-27T17:57:25.016Z,2.04
2023-01-27T18:00:04.434Z,2.04
2023-01-27T18:03:02.520Z,2.04
2023-01-27T18:05:33.326Z,2.03
2023-01-27T18:08:01.728Z,2.04
2023-01-27T18:10:34.598Z,2.04
2023-01-27T18:13:12.531Z,2.04
2023-01-27T18:16:01.776Z,2.06
2023-01-27T18:18:32.075Z,2.06
2023-01-27T18:21:15.003Z,2.06
2023-01-27T18:23:56.598Z,2.06
2023-01-27T18:26:38.766Z,2.08
2023-01-27T18:29:19.758Z,2.07
2023-01-27T18:32:14.114Z,2.06
2023-01-27T18:34:49.600Z,2.06
2023-01-27T18:37:33.839Z,2.07
2023-01-27T18:40:21.401Z,2.06
2023-01-27T18:42:53.369Z,2.06
2023-01-27T18:45:20.466Z,2.07
2023-01-27T18:47:47.550Z,2.07
2023-01-27T18:50:21.695Z,2.07
2023-01-27T18:52:50.086Z,2.07
2023-01-27T18:55:29.190Z,2.07
2023-01-27T18:57:58.961Z,2.08
2023-01-27T19:00:40.136Z,2.09
2023-01-27T19:03:11.722Z,2.09
2023-01-27T19:05:38.626Z,2.09
2023-01-27T19:08:06.309Z,2.07
2023-01-27T19:10:35.113Z,2.08
2023-01-27T19:13:03.898Z,2.08
2023-01-27T19:15:38.228Z,2.09
2023-01-27T19:18:24.974Z,2.09
2023-01-27T19:20:52.792Z,2.10
2023-01-27T19:23:21.496Z,2.09
2023-01-27T19:25:53.574Z,2.10
2023-01-27T19:28:38.548Z,2.10
2023-01-27T19:31:07.289Z,2.10
2023-01-27T19:33:37.080Z,2.10
2023-01-27T19:36:34.864Z,2.11
2023-01-27T19:39:13.617Z,2.10
2023-01-27T19:41:41.889Z,2.11
2023-01-27T19:44:10.455Z,2.11
2023-01-27T19:46:42.720Z,2.10
2023-01-27T19:49:18.163Z,2.11
2023-01-27T19:51:45.560Z,2.12
2023-01-27T19:54:12.738Z,2.12
2023-01-27T19:56:39.652Z,2.12
2023-01-27T19:59:06.831Z,2.12
2023-01-27T20:01:33.742Z,2.11
2023-01-27T20:04:00.803Z,2.11
2023-01-27T20:06:30.993Z,2.12
2023-01-27T20:09:00.225Z,2.11
2023-01-27T20:11:43.204Z,2.11
2023-01-27T20:14:23.650Z,2.12
2023-01-27T20:16:50.585Z,2.10
2023-01-27T20:19:17.603Z,2.09
2023-01-27T20:21:46.363Z,2.10
2023-01-27T20:24:18.607Z,2.09
2023-01-27T20:26:46.471Z,2.09
2023-01-27T20:29:14.005Z,2.09
2023-01-27T20:31:41.204Z,2.09
2023-01-27T20:34:08.220Z,2.08
2023-01-27T20:36:35.396Z,2.08
2023-01-27T20:39:02.374Z,2.08
2023-01-27T20:41:29.411Z,2.08
2023-01-27T20:44:00.186Z,2.07
2023-01-27T20:46:29.059Z,2.08
2023-01-27T20:48:57.907Z,2.07
2023-01-27T20:51:24.888Z,2.08
2023-01-27T20:53:51.866Z,2.07
2023-01-27T20:56:22.546Z,2.07
2023-01-27T20:58:50.233Z,2.07
2023-01-27T21:01:22.973Z,2.08
2023-01-27T21:03:50.752Z,2.06
2023-01-27T21:06:19.853Z,2.07
2023-01-27T21:08:47.761Z,2.07
2023-01-27T21:11:17.618Z,2.06
2023-01-27T21:13:44.873Z,2.06
2023-01-27T21:16:12.367Z,2.06
2023-01-27T21:18:39.371Z,2.07
2023-01-27T21:21:06.403Z,2.07
2023-01-27T21:23:34.863Z,2.06
2023-01-27T21:26:09.439Z,2.06
2023-01-27T21:28:36.546Z,2.05
2023-01-27T21:31:13.535Z,2.04
2023-01-27T21:33:41.314Z,2.02
2023-01-27T21:36:10.743Z,2.02
2023-01-27T21:38:38.994Z,2.00
2023-01-27T21:41:35.059Z,2.00
2023-01-27T21:44:21.410Z,1.99
2023-01-27T21:46:48.632Z,1.97
2023-01-27T21:49:20.559Z,1.97
2023-01-27T21:51:50.046Z,1.97
2023-01-27T21:54:21.384Z,1.97
2023-01-27T21:56:54.240Z,1.97
2023-01-27T21:59:21.177Z,1.96
2023-01-27T22:01:48.119Z,1.95
2023-01-27T22:04:15.273Z,1.95
2023-01-27T22:06:42.390Z,1.95
2023-01-27T22:09:09.748Z,1.94
2023-01-27T22:11:37.071Z,1.93
2023-01-27T22:14:03.983Z,1.94
2023-01-27T22:16:30.919Z,1.93
2023-01-27T22:18:57.830Z,1.94
2023-01-27T22:21:24.769Z,1.94
2023-01-27T22:23:51.707Z,1.94
2023-01-27T22:26:20.650Z,1.94
2023-01-27T22:28:48.374Z,1.95
2023-01-27T22:31:15.320Z,1.95
2023-01-27T22:33:42.222Z,1.95
2023-01-27T22:36:09.592Z,1.95
2023-01-27T22:38:39.812Z,1.95
2023-01-27T22:41:06.761Z,1.95
2023-01-27T22:43:33.725Z,1.95
2023-01-27T22:46:02.787Z,1.96
2023-01-27T22:48:30.586Z,1.97
2023-01-27T22:50:57.555Z,1.98
2023-01-27T22:53:24.511Z,1.98
2023-01-27T22:55:59.558Z,1.97
2023-01-27T22:58:27.679Z,1.98
2023-01-27T23:00:54.958Z,1.97
2023-01-27T23:03:23.129Z,1.97
2023-01-27T23:05:50.314Z,1.97
2023-01-27T23:08:20.649Z,1.97
2023-01-27T23:10:48.812Z,1.96
2023-01-27T23:13:16.218Z,1.96
2023-01-27T23:15:43.113Z,1.95
2023-01-27T23:18:13.214Z,1.94
2023-01-27T23:20:42.190Z,1.92
2023-01-27T23:23:10.285Z,1.94
2023-01-27T23:25:45.259Z,1.93
2023-01-27T23:28:19.805Z,1.92
2023-01-27T23:30:50.017Z,1.92
2023-01-27T23:33:19.409Z,1.90
2023-01-27T23:35:47.050Z,1.90
2023-01-27T23:38:26.595Z,1.90
2023-01-27T23:41:08.064Z,1.90
2023-01-27T23:43:35.012Z,1.90
2023-01-27T23:46:01.994Z,1.90
2023-01-27T23:48:28.935Z,1.89
2023-01-27T23:50:56.293Z,1.88
2023-01-27T23:53:23.525Z,1.88
2023-01-27T23:56:00.037Z,1.88
2023-01-27T23:58:27.724Z,1.88
